| time (UTC) | temp F | wind direction | speed MPH | gust MPH | rain 1hr in | rain 24hr in | rain mn in | humidity % | barometer mb |
| 20260502214055 | 64 | 178 | 4.0 | 8.0 | 0.00 | 0.00 | 0.00 | 34 | 1013.6 |
| 20260502213557 | 63 | 314 | 4.0 | 10.0 | 0.00 | 0.00 | 0.00 | 36 | 1013.7 |
| 20260502213056 | 63 | 243 | 5.0 | 10.0 | 0.00 | 0.00 | 0.00 | 35 | 1013.8 |
| 20260502212556 | 63 | 250 | 2.0 | 10.0 | 0.00 | 0.00 | 0.00 | 35 | 1013.8 |
| 20260502212056 | 63 | 307 | 3.0 | 10.0 | 0.00 | 0.00 | 0.00 | 34 | 1013.9 |
| 20260502211557 | 63 | 242 | 3.0 | 10.0 | 0.00 | 0.00 | 0.00 | 34 | 1013.9 |
| 20260502211056 | 63 | 300 | 4.0 | 12.0 | 0.00 | 0.00 | 0.00 | 33 | 1014.0 |
| 20260502210556 | 62 | 231 | 4.0 | 12.0 | 0.00 | 0.00 | 0.00 | 36 | 1014.0 |
| 20260502210106 | 62 | 221 | 4.0 | 9.0 | 0.00 | 0.00 | 0.00 | 34 | 1014.2 |
| 20260502205556 | 62 | 294 | 4.0 | 12.0 | 0.00 | 0.00 | 0.00 | 37 | 1014.3 |
| 20260502205056 | 62 | 233 | 5.0 | 12.0 | 0.00 | 0.00 | 0.00 | 35 | 1014.3 |
| 20260502204558 | 62 | 314 | 5.0 | 12.0 | 0.00 | 0.00 | 0.00 | 34 | 1014.4 |
| 20260502204053 | 62 | 232 | 3.0 | 8.0 | 0.00 | 0.00 | 0.00 | 33 | 1014.5 |
| 20260502203553 | 62 | 301 | 3.0 | 10.0 | 0.00 | 0.00 | 0.00 | 35 | 1014.6 |
| 20260502203101 | 63 | 239 | 4.0 | 10.0 | 0.00 | 0.00 | 0.00 | 36 | 1014.7 |
| 20260502202553 | 62 | 280 | 3.0 | 8.0 | 0.00 | 0.00 | 0.00 | 36 | 1014.8 |
| 20260502202055 | 62 | 274 | 5.0 | 8.0 | 0.00 | 0.00 | 0.00 | 35 | 1014.9 |
| 20260502201601 | 61 | 248 | 4.0 | 11.0 | 0.00 | 0.00 | 0.00 | 34 | 1015.0 |
| 20260502201052 | 62 | 220 | 4.0 | 11.0 | 0.00 | 0.00 | 0.00 | 37 | 1015.0 |
| 20260502200554 | 62 | 243 | 3.0 | 8.0 | 0.00 | 0.00 | 0.00 | 39 | 1015.1 |
| 20260502200055 | 61 | 243 | 4.0 | 8.0 | 0.00 | 0.00 | 0.00 | 34 | 1015.1 |
| 20260502195554 | 61 | 257 | 4.0 | 9.0 | 0.00 | 0.00 | 0.00 | 36 | 1015.3 |
| 20260502195053 | 61 | 237 | 3.0 | 9.0 | 0.00 | 0.00 | 0.00 | 35 | 1015.4 |
| 20260502194604 | 61 | 271 | 4.0 | 9.0 | 0.00 | 0.00 | 0.00 | 35 | 1015.5 |
| 20260502194053 | 60 | 160 | 3.0 | 9.0 | 0.00 | 0.00 | 0.00 | 38 | 1015.6 |
| 20260502193553 | 60 | 213 | 4.0 | 9.0 | 0.00 | 0.00 | 0.00 | 34 | 1015.8 |
| 20260502193056 | 60 | 284 | 4.0 | 8.0 | 0.00 | 0.00 | 0.00 | 36 | 1015.8 |
| 20260502192556 | 60 | 263 | 3.0 | 8.0 | 0.00 | 0.00 | 0.00 | 35 | 1015.9 |
| 20260502192055 | 60 | 260 | 3.0 | 8.0 | 0.00 | 0.00 | 0.00 | 39 | 1015.9 |
| 20260502191607 | 60 | 281 | 2.0 | 9.0 | 0.00 | 0.00 | 0.00 | 37 | 1015.9 |
| 20260502191056 | 59 | 308 | 4.0 | 9.0 | 0.00 | 0.00 | 0.00 | 36 | 1016.1 |
| 20260502190556 | 59 | 247 | 3.0 | 9.0 | 0.00 | 0.00 | 0.00 | 34 | 1016.1 |
| 20260502190058 | 59 | 218 | 3.0 | 7.0 | 0.00 | 0.00 | 0.00 | 36 | 1016.1 |
| 20260502185555 | 59 | 316 | 4.0 | 10.0 | 0.00 | 0.00 | 0.00 | 33 | 1016.3 |
| 20260502185052 | 59 | 306 | 3.0 | 10.0 | 0.00 | 0.00 | 0.00 | 35 | 1016.3 |
| 20260502184601 | 59 | 302 | 4.0 | 8.0 | 0.00 | 0.00 | 0.00 | 35 | 1016.4 |
| 20260502184052 | 59 | 305 | 4.0 | 12.0 | 0.00 | 0.00 | 0.00 | 35 | 1016.4 |
| 20260502183552 | 59 | 217 | 4.0 | 12.0 | 0.00 | 0.00 | 0.00 | 33 | 1016.6 |
| 20260502183056 | 59 | 127 | 4.0 | 10.0 | 0.00 | 0.00 | 0.00 | 35 | 1016.6 |
| 20260502182554 | 59 | 259 | 3.0 | 10.0 | 0.00 | 0.00 | 0.00 | 35 | 1016.9 |
| 20260502182052 | 58 | 269 | 4.0 | 9.0 | 0.00 | 0.00 | 0.00 | 37 | 1017.0 |
| 20260502181555 | 58 | 207 | 5.0 | 9.0 | 0.00 | 0.00 | 0.00 | 38 | 1017.0 |
| 20260502181057 | 58 | 252 | 4.0 | 9.0 | 0.00 | 0.00 | 0.00 | 37 | 1017.0 |
| 20260502180554 | 58 | 234 | 3.0 | 12.0 | 0.00 | 0.00 | 0.00 | 36 | 1017.1 |
| 20260502164053 | 56 | 307 | 3.0 | 11.0 | 0.00 | 0.00 | 0.00 | 39 | 1018.1 |
| 20260502163553 | 55 | 235 | 3.0 | 8.0 | 0.00 | 0.00 | 0.00 | 38 | 1018.1 |
| 20260502163054 | 55 | 257 | 4.0 | 8.0 | 0.00 | 0.00 | 0.00 | 38 | 1018.4 |
| 20260502162553 | 55 | 307 | 4.0 | 10.0 | 0.00 | 0.00 | 0.00 | 41 | 1018.3 |
| 20260502162053 | 55 | 250 | 7.0 | 11.0 | 0.00 | 0.00 | 0.00 | 39 | 1018.5 |
| 20260502161556 | 54 | 123 | 4.0 | 11.0 | 0.00 | 0.00 | 0.00 | 42 | 1018.5 |
| 20260502161055 | 54 | 288 | 6.0 | 11.0 | 0.00 | 0.00 | 0.00 | 38 | 1018.6 |
| 20260502160555 | 54 | 243 | 5.0 | 12.0 | 0.00 | 0.00 | 0.00 | 40 | 1018.6 |
| 20260502152055 | 53 | 288 | 1.0 | 8.0 | 0.00 | 0.00 | 0.00 | 47 | 1018.8 |
| 20260502151631 | 53 | 285 | 3.0 | 9.0 | 0.00 | 0.00 | 0.00 | 42 | 1018.9 |
| 20260502151052 | 52 | 287 | 4.0 | 9.0 | 0.00 | 0.00 | 0.00 | 46 | 1019.0 |
| 20260502150554 | 53 | 294 | 2.0 | 8.0 | 0.00 | 0.00 | 0.00 | 45 | 1019.0 |
| 20260502150103 | 52 | 306 | 4.0 | 8.0 | 0.00 | 0.00 | 0.00 | 45 | 1019.0 |
| 20260502130553 | 44 | 224 | 3.0 | 8.0 | 0.00 | 0.00 | 0.00 | 62 | 1019.2 |
| 20260502123556 | 41 | 260 | 3.0 | 7.0 | 0.00 | 0.00 | 0.00 | 68 | 1019.2 |
| 20260502123104 | 40 | 266 | 3.0 | 5.0 | 0.00 | 0.00 | 0.00 | 67 | 1019.1 |
| 20260502122552 | 40 | 256 | 2.0 | 4.0 | 0.00 | 0.00 | 0.00 | 68 | 1019.1 |
| 20260502122052 | 39 | 254 | 2.0 | 3.0 | 0.00 | 0.00 | 0.00 | 69 | 1019.1 |
| 20260502121555 | 39 | 243 | 2.0 | 4.0 | 0.00 | 0.00 | 0.00 | 69 | 1019.1 |
| 20260502121051 | 38 | 250 | 2.0 | 4.0 | 0.00 | 0.00 | 0.00 | 69 | 1019.1 |
| 20260502120551 | 38 | 260 | 2.0 | 4.0 | 0.00 | 0.00 | 0.00 | 69 | 1019.1 |
| 20260502115554 | 37 | 251 | 2.0 | 4.0 | 0.00 | 0.00 | 0.00 | 71 | 1019.0 |
| 20260502115053 | 36 | 252 | 2.0 | 4.0 | 0.00 | 0.00 | 0.00 | 72 | 1018.9 |
| 20260502114600 | 36 | 259 | 2.0 | 4.0 | 0.00 | 0.00 | 0.00 | 74 | 1018.8 |
| 20260502114053 | 35 | 250 | 2.0 | 4.0 | 0.00 | 0.00 | 0.00 | 75 | 1018.7 |
| 20260502113554 | 35 | 255 | 2.0 | 4.0 | 0.00 | 0.00 | 0.00 | 75 | 1018.7 |
| 20260502113059 | 34 | 250 | 2.0 | 3.0 | 0.00 | 0.00 | 0.00 | 75 | 1018.7 |
| 20260502112552 | 34 | 250 | 2.0 | 3.0 | 0.00 | 0.00 | 0.00 | 76 | 1018.7 |
| 20260502112052 | 33 | 243 | 2.0 | 3.0 | 0.00 | 0.00 | 0.00 | 77 | 1018.8 |
| 20260502111600 | 33 | 256 | 2.0 | 3.0 | 0.00 | 0.00 | 0.00 | 75 | 1018.7 |
| 20260502111055 | 33 | 259 | 2.0 | 3.0 | 0.00 | 0.00 | 0.00 | 77 | 1018.8 |
| 20260502110552 | 33 | 243 | 2.0 | 3.0 | 0.00 | 0.00 | 0.00 | 76 | 1018.8 |
| 20260502110059 | 33 | 258 | 2.0 | 3.0 | 0.00 | 0.00 | 0.00 | 75 | 1018.8 |
| 20260502105552 | 33 | 252 | 2.0 | 3.0 | 0.00 | 0.00 | 0.00 | 76 | 1018.8 |
| 20260502105055 | 33 | 248 | 2.0 | 3.0 | 0.00 | 0.00 | 0.00 | 76 | 1018.6 |
| 20260502104601 | 33 | 243 | 2.0 | 3.0 | 0.00 | 0.00 | 0.00 | 76 | 1018.7 |
| 20260502104056 | 33 | 242 | 2.0 | 3.0 | 0.00 | 0.00 | 0.00 | 76 | 1018.7 |
| 20260502103552 | 33 | 243 | 2.0 | 3.0 | 0.00 | 0.00 | 0.00 | 77 | 1018.7 |
| 20260502103106 | 32 | 247 | 2.0 | 3.0 | 0.00 | 0.00 | 0.00 | 77 | 1018.7 |
| 20260502102555 | 33 | 255 | 2.0 | 3.0 | 0.00 | 0.00 | 0.00 | 76 | 1018.6 |
| 20260502102055 | 33 | 252 | 2.0 | 3.0 | 0.00 | 0.00 | 0.00 | 75 | 1018.6 |
| 20260502101611 | 32 | 265 | 1.0 | 2.0 | 0.00 | 0.00 | 0.00 | 76 | 1018.7 |
| 20260502101052 | 32 | 257 | 1.0 | 2.0 | 0.00 | 0.00 | 0.00 | 78 | 1018.7 |
| 20260502100552 | 31 | 169 | 0.0 | 1.0 | 0.00 | 0.00 | 0.00 | 79 | 1018.8 |
| 20260502100130 | 31 | 0 | 0.0 | 1.0 | 0.00 | 0.00 | 0.00 | 78 | 1018.8 |
| 20260502091051 | 32 | 0 | 0.0 | 1.0 | 0.00 | 0.00 | 0.00 | 75 | 1018.9 |
| 20260502090557 | 33 | 0 | 0.0 | 2.0 | 0.00 | 0.00 | 0.00 | 74 | 1018.8 |
| 20260502090112 | 33 | 240 | 0.0 | 2.0 | 0.00 | 0.00 | 0.00 | 73 | 1018.8 |
| 20260502080109 | 32 | 191 | 0.0 | 1.0 | 0.00 | 0.00 | 0.00 | 75 | 1018.7 |
| 20260502071051 | 32 | 193 | 0.0 | 1.0 | 0.00 | 0.00 | 0.00 | 74 | 1018.9 |
| 20260502070551 | 32 | 196 | 0.0 | 1.0 | 0.00 | 0.00 | 0.00 | 74 | 1018.9 |
| 20260502070058 | 32 | 203 | 0.0 | 1.0 | 0.00 | 0.00 | 0.00 | 74 | 1018.9 |
| 20260502065555 | 32 | 199 | 0.0 | 1.0 | 0.00 | 0.00 | 0.00 | 74 | 1019.0 |
| 20260502065055 | 32 | 0 | 0.0 | 1.0 | 0.00 | 0.00 | 0.00 | 74 | 1019.1 |
| 20260502064606 | 33 | 0 | 0.0 | 1.0 | 0.00 | 0.00 | 0.00 | 74 | 1019.2 |
| 20260502064052 | 33 | 163 | 0.0 | 1.0 | 0.00 | 0.00 | 0.00 | 74 | 1019.2 |
| 20260502063552 | 33 | 195 | 0.0 | 1.0 | 0.00 | 0.00 | 0.00 | 74 | 1019.2 |
| 20260502063106 | 33 | 206 | 0.0 | 1.0 | 0.00 | 0.00 | 0.00 | 73 | 1019.3 |
| 20260502062555 | 33 | 207 | 0.0 | 1.0 | 0.00 | 0.00 | 0.00 | 73 | 1019.3 |
| 20260502062052 | 33 | 212 | 0.0 | 1.0 | 0.00 | 0.00 | 0.00 | 73 | 1019.2 |
| 20260502061611 | 33 | 193 | 0.0 | 1.0 | 0.00 | 0.00 | 0.00 | 73 | 1019.2 |
| 20260502061052 | 33 | 205 | 0.0 | 1.0 | 0.00 | 0.00 | 0.00 | 73 | 1019.2 |
| 20260502060552 | 33 | 153 | 0.0 | 1.0 | 0.00 | 0.00 | 0.00 | 73 | 1019.3 |
| 20260502060058 | 33 | 210 | 0.0 | 1.0 | 0.00 | 0.00 | 0.00 | 73 | 1019.3 |
| 20260502055555 | 33 | 195 | 0.0 | 1.0 | 0.00 | 0.00 | 0.00 | 72 | 1019.1 |
| 20260502055052 | 33 | 0 | 0.0 | 1.0 | 0.00 | 0.00 | 0.00 | 72 | 1019.2 |
| 20260502054556 | 33 | 0 | 0.0 | 2.0 | 0.00 | 0.00 | 0.00 | 72 | 1019.1 |
| 20260502054056 | 33 | 0 | 0.0 | 2.0 | 0.00 | 0.00 | 0.00 | 71 | 1019.2 |
| 20260502053551 | 33 | 0 | 0.0 | 2.0 | 0.00 | 0.00 | 0.00 | 71 | 1019.1 |
| 20260502053104 | 33 | 0 | 0.0 | 1.0 | 0.00 | 0.00 | 0.00 | 71 | 1019.1 |
| 20260502052554 | 33 | 197 | 0.0 | 1.0 | 0.00 | 0.00 | 0.00 | 71 | 1019.0 |
| 20260502052052 | 33 | 0 | 0.0 | 1.0 | 0.00 | 0.00 | 0.00 | 71 | 1019.1 |
| 20260502051556 | 33 | 0 | 0.0 | 1.0 | 0.00 | 0.00 | 0.00 | 72 | 1019.0 |
| 20260502051057 | 33 | 224 | 0.0 | 1.0 | 0.00 | 0.00 | 0.00 | 72 | 1019.1 |
| 20260502050553 | 33 | 224 | 0.0 | 1.0 | 0.00 | 0.00 | 0.00 | 71 | 1019.0 |
| 20260502050058 | 34 | 0 | 0.0 | 1.0 | 0.00 | 0.00 | 0.00 | 70 | 1018.9 |
| 20260502045555 | 34 | 0 | 0.0 | 0.0 | 0.00 | 0.00 | 0.00 | 70 | 1018.9 |
| 20260502045053 | 34 | 0 | 0.0 | 0.0 | 0.00 | 0.00 | 0.00 | 69 | 1018.9 |
| 20260502044556 | 34 | 0 | 0.0 | 0.0 | 0.00 | 0.00 | 0.00 | 69 | 1019.0 |
| 20260502044053 | 34 | 0 | 0.0 | 0.0 | 0.00 | 0.00 | 0.00 | 69 | 1019.0 |
| 20260502043554 | 34 | 0 | 0.0 | 1.0 | 0.00 | 0.00 | 0.00 | 68 | 1019.0 |
| 20260502043103 | 35 | 0 | 0.0 | 1.0 | 0.00 | 0.00 | 0.00 | 68 | 1018.9 |
| 20260502042554 | 35 | 224 | 0.0 | 1.0 | 0.00 | 0.00 | 0.00 | 69 | 1019.0 |
| 20260502042056 | 35 | 230 | 0.0 | 1.0 | 0.00 | 0.00 | 0.00 | 68 | 1019.0 |
| 20260502041613 | 35 | 213 | 0.0 | 1.0 | 0.00 | 0.00 | 0.00 | 67 | 1019.1 |
| 20260502041054 | 35 | 0 | 0.0 | 1.0 | 0.00 | 0.00 | 0.00 | 67 | 1019.1 |
| 20260502040553 | 35 | 0 | 0.0 | 0.0 | 0.00 | 0.00 | 0.00 | 67 | 1019.0 |
| 20260502040100 | 35 | 0 | 0.0 | 0.0 | 0.00 | 0.00 | 0.00 | 67 | 1019.1 |
| 20260502035553 | 35 | 0 | 0.0 | 1.0 | 0.00 | 0.00 | 0.00 | 69 | 1019.1 |
| 20260502035053 | 36 | 0 | 0.0 | 1.0 | 0.00 | 0.00 | 0.00 | 69 | 1019.1 |
| 20260502034554 | 36 | 244 | 0.0 | 1.0 | 0.00 | 0.00 | 0.00 | 67 | 1019.1 |
| 20260502034054 | 36 | 0 | 0.0 | 2.0 | 0.00 | 0.00 | 0.00 | 66 | 1019.0 |
| 20260502033554 | 37 | 0 | 0.0 | 2.0 | 0.00 | 0.00 | 0.00 | 65 | 1019.1 |
| 20260502033054 | 36 | 0 | 0.0 | 1.0 | 0.00 | 0.00 | 0.00 | 64 | 1019.1 |
| 20260502032553 | 36 | 0 | 0.0 | 1.0 | 0.00 | 0.00 | 0.00 | 69 | 1019.1 |
| 20260502032053 | 36 | 232 | 0.0 | 1.0 | 0.00 | 0.00 | 0.00 | 67 | 1019.1 |
| 20260502031602 | 37 | 219 | 0.0 | 0.0 | 0.00 | 0.00 | 0.00 | 69 | 1019.1 |
| 20260502031054 | 38 | 0 | 0.0 | 0.0 | 0.00 | 0.00 | 0.00 | 65 | 1019.2 |
| 20260502030553 | 39 | 0 | 0.0 | 0.0 | 0.00 | 0.00 | 0.00 | 58 | 1019.2 |
| 20260502025553 | 39 | 0 | 0.0 | 0.0 | 0.00 | 0.00 | 0.00 | 56 | 1019.2 |
| 20260502025053 | 40 | 0 | 0.0 | 0.0 | 0.00 | 0.00 | 0.00 | 56 | 1019.2 |
| 20260502024604 | 40 | 0 | 0.0 | 0.0 | 0.00 | 0.00 | 0.00 | 57 | 1019.1 |
| 20260502024054 | 40 | 0 | 0.0 | 1.0 | 0.00 | 0.00 | 0.00 | 58 | 1019.0 |
| 20260502023557 | 39 | 0 | 0.0 | 1.0 | 0.00 | 0.00 | 0.00 | 58 | 1019.2 |
| 20260502023100 | 39 | 0 | 0.0 | 1.0 | 0.00 | 0.00 | 0.00 | 59 | 1019.1 |
| 20260502022553 | 40 | 219 | 0.0 | 1.0 | 0.00 | 0.00 | 0.00 | 60 | 1019.1 |
| 20260502022054 | 40 | 0 | 0.0 | 1.0 | 0.00 | 0.00 | 0.00 | 64 | 1019.0 |
| 20260502021605 | 41 | 0 | 0.0 | 0.0 | 0.00 | 0.00 | 0.00 | 58 | 1019.1 |
| 20260502021054 | 41 | 0 | 0.0 | 0.0 | 0.00 | 0.00 | 0.00 | 63 | 1019.2 |
| 20260502020553 | 41 | 0 | 0.0 | 0.0 | 0.00 | 0.00 | 0.00 | 53 | 1019.0 |
| 20260502020056 | 41 | 0 | 0.0 | 0.0 | 0.00 | 0.00 | 0.00 | 52 | 1018.9 |
| 20260502015554 | 42 | 0 | 0.0 | 0.0 | 0.00 | 0.00 | 0.00 | 53 | 1018.9 |
| 20260502015054 | 43 | 0 | 0.0 | 0.0 | 0.00 | 0.00 | 0.00 | 52 | 1018.8 |
| 20260502014557 | 43 | 0 | 0.0 | 0.0 | 0.00 | 0.00 | 0.00 | 52 | 1018.8 |
| 20260502014053 | 44 | 0 | 0.0 | 0.0 | 0.00 | 0.00 | 0.00 | 53 | 1018.7 |
| 20260502013555 | 44 | 0 | 0.0 | 0.0 | 0.00 | 0.00 | 0.00 | 54 | 1018.8 |
| 20260502013054 | 44 | 0 | 0.0 | 0.0 | 0.00 | 0.00 | 0.00 | 52 | 1018.7 |
| 20260502012557 | 45 | 0 | 0.0 | 0.0 | 0.00 | 0.00 | 0.00 | 48 | 1018.8 |
| 20260502012053 | 45 | 0 | 0.0 | 0.0 | 0.00 | 0.00 | 0.00 | 50 | 1018.7 |
| 20260502011555 | 44 | 0 | 0.0 | 0.0 | 0.00 | 0.00 | 0.00 | 51 | 1018.6 |
| 20260502011053 | 44 | 0 | 0.0 | 0.0 | 0.00 | 0.00 | 0.00 | 48 | 1018.6 |
| 20260502010553 | 45 | 0 | 0.0 | 0.0 | 0.00 | 0.00 | 0.00 | 47 | 1018.5 |
| 20260502010108 | 45 | 0 | 0.0 | 0.0 | 0.00 | 0.00 | 0.00 | 47 | 1018.5 |
| 20260502005556 | 46 | 0 | 0.0 | 0.0 | 0.00 | 0.00 | 0.00 | 46 | 1018.5 |
| 20260502005057 | 46 | 0 | 0.0 | 1.0 | 0.00 | 0.00 | 0.00 | 45 | 1018.5 |
| 20260502004602 | 47 | 0 | 0.0 | 2.0 | 0.00 | 0.00 | 0.00 | 46 | 1018.5 |
| 20260502004054 | 47 | 0 | 0.0 | 2.0 | 0.00 | 0.00 | 0.00 | 44 | 1018.4 |
| 20260502003554 | 48 | 357 | 1.0 | 4.0 | 0.00 | 0.00 | 0.00 | 43 | 1018.4 |
| 20260502003104 | 48 | 0 | 0.0 | 4.0 | 0.00 | 0.00 | 0.00 | 41 | 1018.4 |
| 20260502002553 | 48 | 6 | 1.0 | 3.0 | 0.00 | 0.00 | 0.00 | 42 | 1018.4 |
| 20260502002053 | 48 | 0 | 0.0 | 3.0 | 0.00 | 0.00 | 0.00 | 44 | 1018.4 |
| 20260502001556 | 49 | 276 | 1.0 | 4.0 | 0.00 | 0.00 | 0.00 | 43 | 1018.3 |
| 20260502001054 | 49 | 264 | 1.0 | 4.0 | 0.00 | 0.00 | 0.00 | 40 | 1018.3 |
| 20260502000553 | 49 | 0 | 1.0 | 5.0 | 0.00 | 0.00 | 0.00 | 38 | 1018.3 |
| 20260502000055 | 50 | 279 | 1.0 | 5.0 | 0.00 | 0.00 | 0.00 | 37 | 1018.3 |
| 20260501235556 | 50 | 21 | 2.0 | 4.0 | 0.00 | 0.00 | 0.00 | 39 | 1018.3 |
| 20260501235053 | 50 | 327 | 1.0 | 5.0 | 0.00 | 0.00 | 0.00 | 38 | 1018.3 |
| 20260501234600 | 49 | 8 | 1.0 | 7.0 | 0.00 | 0.00 | 0.00 | 38 | 1018.1 |
| 20260501234053 | 49 | 349 | 3.0 | 7.0 | 0.00 | 0.00 | 0.00 | 37 | 1018.3 |
| 20260501233553 | 50 | 349 | 4.0 | 7.0 | 0.00 | 0.00 | 0.00 | 36 | 1018.2 |
| 20260501233058 | 50 | 328 | 2.0 | 6.0 | 0.00 | 0.00 | 0.00 | 40 | 1018.2 |
| 20260501232552 | 50 | 322 | 2.0 | 9.0 | 0.00 | 0.00 | 0.00 | 38 | 1018.1 |
| 20260501232056 | 50 | 330 | 6.0 | 9.0 | 0.00 | 0.00 | 0.00 | 39 | 1018.1 |
| 20260501231601 | 51 | 356 | 3.0 | 10.0 | 0.00 | 0.00 | 0.00 | 37 | 1018.1 |
| 20260501231054 | 50 | 26 | 3.0 | 10.0 | 0.00 | 0.00 | 0.00 | 37 | 1018.1 |
| 20260501230553 | 50 | 345 | 5.0 | 10.0 | 0.00 | 0.00 | 0.00 | 36 | 1018.2 |
| 20260501230100 | 51 | 360 | 2.0 | 6.0 | 0.00 | 0.00 | 0.00 | 38 | 1018.0 |
| 20260501225556 | 50 | 28 | 2.0 | 6.0 | 0.00 | 0.00 | 0.00 | 37 | 1018.1 |
| 20260501225055 | 49 | 20 | 3.0 | 7.0 | 0.00 | 0.00 | 0.00 | 37 | 1018.1 |
| 20260501224554 | 49 | 25 | 3.0 | 8.0 | 0.00 | 0.00 | 0.00 | 38 | 1018.1 |
| 20260501224053 | 49 | 25 | 5.0 | 8.0 | 0.00 | 0.00 | 0.00 | 37 | 1018.1 |
| 20260501223553 | 50 | 4 | 2.0 | 5.0 | 0.00 | 0.00 | 0.00 | 38 | 1018.3 |
| 20260501223103 | 50 | 359 | 2.0 | 5.0 | 0.00 | 0.00 | 0.00 | 35 | 1018.2 |
| 20260501222553 | 51 | 311 | 1.0 | 6.0 | 0.00 | 0.00 | 0.00 | 37 | 1018.1 |
| 20260501222053 | 51 | 252 | 3.0 | 11.0 | 0.00 | 0.00 | 0.00 | 35 | 1018.2 |
| 20260501221556 | 51 | 298 | 4.0 | 11.0 | 0.00 | 0.00 | 0.00 | 38 | 1018.1 |
| 20260501221058 | 52 | 51 | 7.0 | 11.0 | 0.00 | 0.00 | 0.00 | 32 | 1018.0 |
| 20260501220557 | 53 | 41 | 4.0 | 10.0 | 0.00 | 0.00 | 0.00 | 35 | 1018.0 |
| 20260501220059 | 53 | 23 | 4.0 | 10.0 | 0.00 | 0.00 | 0.00 | 35 | 1018.1 |
| 20260501215553 | 53 | 269 | 4.0 | 10.0 | 0.00 | 0.00 | 0.00 | 36 | 1018.0 |
| 20260501215056 | 53 | 37 | 2.0 | 12.0 | 0.00 | 0.00 | 0.00 | 36 | 1018.1 |
| 20260501214600 | 53 | 6 | 2.0 | 12.0 | 0.00 | 0.00 | 0.00 | 36 | 1018.1 |